sensor_id;sensor_type;location;lat;lon;timestamp;P1;durP1;ratioP1;P2;durP2;ratioP2
78670;SDS011;68277;52.724;6.516;2024-03-02T00:02:42;3.53;;;1.58;;
78670;SDS011;68277;52.724;6.516;2024-03-02T00:05:13;2.30;;;1.52;;
78670;SDS011;68277;52.724;6.516;2024-03-02T00:07:43;1.50;;;0.90;;
78670;SDS011;68277;52.724;6.516;2024-03-02T00:10:09;3.50;;;1.50;;
78670;SDS011;68277;52.724;6.516;2024-03-02T00:12:39;2.60;;;0.93;;
78670;SDS011;68277;52.724;6.516;2024-03-02T00:15:16;2.33;;;1.70;;
78670;SDS011;68277;52.724;6.516;2024-03-02T00:18:10;1.20;;;1.10;;
78670;SDS011;68277;52.724;6.516;2024-03-02T00:20:38;1.20;;;1.00;;
78670;SDS011;68277;52.724;6.516;2024-03-02T00:23:04;1.13;;;0.98;;
78670;SDS011;68277;52.724;6.516;2024-03-02T00:25:38;2.30;;;1.65;;
78670;SDS011;68277;52.724;6.516;2024-03-02T00:28:17;1.90;;;1.17;;
78670;SDS011;68277;52.724;6.516;2024-03-02T00:33:29;2.13;;;0.93;;
78670;SDS011;68277;52.724;6.516;2024-03-02T00:35:59;1.10;;;0.93;;
78670;SDS011;68277;52.724;6.516;2024-03-02T00:38:25;2.47;;;0.80;;
78670;SDS011;68277;52.724;6.516;2024-03-02T00:40:52;2.55;;;1.42;;
78670;SDS011;68277;52.724;6.516;2024-03-02T00:46:13;1.35;;;1.10;;
78670;SDS011;68277;52.724;6.516;2024-03-02T00:48:51;1.40;;;0.95;;
78670;SDS011;68277;52.724;6.516;2024-03-02T00:51:20;1.20;;;0.75;;
78670;SDS011;68277;52.724;6.516;2024-03-02T00:53:46;2.28;;;1.17;;
78670;SDS011;68277;52.724;6.516;2024-03-02T00:56:12;1.67;;;0.85;;
78670;SDS011;68277;52.724;6.516;2024-03-02T00:58:38;3.08;;;1.63;;
78670;SDS011;68277;52.724;6.516;2024-03-02T01:01:04;3.13;;;1.42;;
78670;SDS011;68277;52.724;6.516;2024-03-02T01:03:31;1.52;;;1.30;;
78670;SDS011;68277;52.724;6.516;2024-03-02T01:05:57;1.55;;;1.10;;
78670;SDS011;68277;52.724;6.516;2024-03-02T01:08:23;1.55;;;1.10;;
78670;SDS011;68277;52.724;6.516;2024-03-02T01:10:49;2.15;;;1.38;;
78670;SDS011;68277;52.724;6.516;2024-03-02T01:13:14;1.77;;;0.88;;
78670;SDS011;68277;52.724;6.516;2024-03-02T01:15:40;1.88;;;0.90;;
78670;SDS011;68277;52.724;6.516;2024-03-02T01:18:06;2.67;;;1.05;;
78670;SDS011;68277;52.724;6.516;2024-03-02T01:20:31;2.03;;;1.08;;
78670;SDS011;68277;52.724;6.516;2024-03-02T01:22:57;1.27;;;1.20;;
78670;SDS011;68277;52.724;6.516;2024-03-02T01:25:24;1.25;;;0.95;;
78670;SDS011;68277;52.724;6.516;2024-03-02T01:27:50;1.75;;;1.08;;
78670;SDS011;68277;52.724;6.516;2024-03-02T01:30:15;1.42;;;0.88;;
78670;SDS011;68277;52.724;6.516;2024-03-02T01:32:41;0.93;;;0.77;;
78670;SDS011;68277;52.724;6.516;2024-03-02T01:35:07;2.00;;;0.93;;
78670;SDS011;68277;52.724;6.516;2024-03-02T01:37:33;1.40;;;1.00;;
78670;SDS011;68277;52.724;6.516;2024-03-02T01:39:58;1.27;;;1.05;;
78670;SDS011;68277;52.724;6.516;2024-03-02T01:42:24;2.10;;;1.58;;
78670;SDS011;68277;52.724;6.516;2024-03-02T01:44:50;2.10;;;0.98;;
78670;SDS011;68277;52.724;6.516;2024-03-02T01:47:16;3.22;;;1.30;;
78670;SDS011;68277;52.724;6.516;2024-03-02T01:49:41;2.45;;;1.33;;
78670;SDS011;68277;52.724;6.516;2024-03-02T01:52:07;2.38;;;1.42;;
78670;SDS011;68277;52.724;6.516;2024-03-02T01:54:32;1.20;;;1.10;;
78670;SDS011;68277;52.724;6.516;2024-03-02T01:56:58;0.85;;;0.68;;
78670;SDS011;68277;52.724;6.516;2024-03-02T01:59:39;1.10;;;0.60;;
78670;SDS011;68277;52.724;6.516;2024-03-02T02:02:05;0.73;;;0.73;;
78670;SDS011;68277;52.724;6.516;2024-03-02T02:07:31;2.03;;;1.58;;
78670;SDS011;68277;52.724;6.516;2024-03-02T02:09:57;2.70;;;1.10;;
78670;SDS011;68277;52.724;6.516;2024-03-02T02:12:23;1.25;;;0.93;;
78670;SDS011;68277;52.724;6.516;2024-03-02T02:14:50;5.65;;;1.50;;
78670;SDS011;68277;52.724;6.516;2024-03-02T02:17:15;2.03;;;0.98;;
78670;SDS011;68277;52.724;6.516;2024-03-02T02:19:41;1.45;;;1.10;;
78670;SDS011;68277;52.724;6.516;2024-03-02T02:22:08;1.67;;;0.90;;
78670;SDS011;68277;52.724;6.516;2024-03-02T02:24:34;1.88;;;1.20;;
78670;SDS011;68277;52.724;6.516;2024-03-02T02:26:59;1.80;;;0.85;;
78670;SDS011;68277;52.724;6.516;2024-03-02T02:29:25;1.38;;;1.15;;
78670;SDS011;68277;52.724;6.516;2024-03-02T02:31:50;2.15;;;1.42;;
78670;SDS011;68277;52.724;6.516;2024-03-02T02:34:16;2.60;;;1.65;;
78670;SDS011;68277;52.724;6.516;2024-03-02T02:36:41;2.25;;;1.05;;
78670;SDS011;68277;52.724;6.516;2024-03-02T02:39:09;2.90;;;1.40;;
78670;SDS011;68277;52.724;6.516;2024-03-02T02:41:38;2.97;;;1.65;;
78670;SDS011;68277;52.724;6.516;2024-03-02T02:44:04;1.02;;;0.73;;
78670;SDS011;68277;52.724;6.516;2024-03-02T02:46:30;2.47;;;1.17;;
78670;SDS011;68277;52.724;6.516;2024-03-02T02:48:56;1.38;;;1.02;;
78670;SDS011;68277;52.724;6.516;2024-03-02T02:51:21;2.00;;;1.05;;
78670;SDS011;68277;52.724;6.516;2024-03-02T02:53:47;1.73;;;1.20;;
78670;SDS011;68277;52.724;6.516;2024-03-02T02:56:12;1.30;;;1.13;;
78670;SDS011;68277;52.724;6.516;2024-03-02T02:58:39;2.25;;;1.50;;
78670;SDS011;68277;52.724;6.516;2024-03-02T03:01:06;1.55;;;0.98;;
78670;SDS011;68277;52.724;6.516;2024-03-02T03:03:33;2.55;;;1.98;;
78670;SDS011;68277;52.724;6.516;2024-03-02T03:05:58;1.42;;;1.15;;
78670;SDS011;68277;52.724;6.516;2024-03-02T03:08:24;2.58;;;1.40;;
78670;SDS011;68277;52.724;6.516;2024-03-02T03:10:49;2.20;;;0.95;;
78670;SDS011;68277;52.724;6.516;2024-03-02T03:13:15;1.13;;;1.00;;
78670;SDS011;68277;52.724;6.516;2024-03-02T03:15:41;1.38;;;1.23;;
78670;SDS011;68277;52.724;6.516;2024-03-02T03:18:06;6.85;;;1.17;;
78670;SDS011;68277;52.724;6.516;2024-03-02T03:20:41;0.95;;;0.65;;
78670;SDS011;68277;52.724;6.516;2024-03-02T03:23:09;0.73;;;0.63;;
78670;SDS011;68277;52.724;6.516;2024-03-02T03:25:40;1.05;;;0.88;;
78670;SDS011;68277;52.724;6.516;2024-03-02T03:28:06;2.30;;;1.00;;
78670;SDS011;68277;52.724;6.516;2024-03-02T03:30:32;2.42;;;1.75;;
78670;SDS011;68277;52.724;6.516;2024-03-02T03:32:57;1.00;;;0.90;;
78670;SDS011;68277;52.724;6.516;2024-03-02T03:35:23;1.50;;;1.08;;
78670;SDS011;68277;52.724;6.516;2024-03-02T03:37:48;0.95;;;0.70;;
78670;SDS011;68277;52.724;6.516;2024-03-02T03:40:13;1.10;;;0.80;;
78670;SDS011;68277;52.724;6.516;2024-03-02T03:42:39;4.55;;;1.00;;
78670;SDS011;68277;52.724;6.516;2024-03-02T03:45:08;1.13;;;1.02;;
78670;SDS011;68277;52.724;6.516;2024-03-02T03:47:33;2.42;;;1.50;;
78670;SDS011;68277;52.724;6.516;2024-03-02T03:49:59;2.20;;;1.25;;
78670;SDS011;68277;52.724;6.516;2024-03-02T03:52:25;9.10;;;1.08;;
78670;SDS011;68277;52.724;6.516;2024-03-02T03:54:50;1.27;;;0.88;;
78670;SDS011;68277;52.724;6.516;2024-03-02T03:57:16;2.30;;;1.30;;
78670;SDS011;68277;52.724;6.516;2024-03-02T03:59:42;1.73;;;1.00;;
78670;SDS011;68277;52.724;6.516;2024-03-02T04:02:08;1.35;;;1.02;;
78670;SDS011;68277;52.724;6.516;2024-03-02T04:04:34;2.35;;;1.45;;
78670;SDS011;68277;52.724;6.516;2024-03-02T04:07:00;2.30;;;1.13;;
78670;SDS011;68277;52.724;6.516;2024-03-02T04:09:26;4.75;;;1.65;;
78670;SDS011;68277;52.724;6.516;2024-03-02T04:11:52;1.63;;;1.23;;
78670;SDS011;68277;52.724;6.516;2024-03-02T04:14:18;2.13;;;1.23;;
78670;SDS011;68277;52.724;6.516;2024-03-02T04:16:44;1.58;;;0.80;;
78670;SDS011;68277;52.724;6.516;2024-03-02T04:19:10;2.08;;;1.15;;
78670;SDS011;68277;52.724;6.516;2024-03-02T04:21:35;2.28;;;0.80;;
78670;SDS011;68277;52.724;6.516;2024-03-02T04:24:01;1.10;;;0.95;;
78670;SDS011;68277;52.724;6.516;2024-03-02T04:26:26;3.88;;;1.33;;
78670;SDS011;68277;52.724;6.516;2024-03-02T04:28:53;3.28;;;2.00;;
78670;SDS011;68277;52.724;6.516;2024-03-02T04:31:19;2.42;;;1.58;;
78670;SDS011;68277;52.724;6.516;2024-03-02T04:33:45;1.25;;;0.75;;
78670;SDS011;68277;52.724;6.516;2024-03-02T04:36:11;2.67;;;1.52;;
78670;SDS011;68277;52.724;6.516;2024-03-02T04:38:37;2.10;;;1.65;;
78670;SDS011;68277;52.724;6.516;2024-03-02T04:41:03;3.55;;;1.20;;
78670;SDS011;68277;52.724;6.516;2024-03-02T04:43:32;0.90;;;0.80;;
78670;SDS011;68277;52.724;6.516;2024-03-02T04:45:58;5.80;;;1.23;;
78670;SDS011;68277;52.724;6.516;2024-03-02T04:48:24;1.65;;;1.27;;
78670;SDS011;68277;52.724;6.516;2024-03-02T04:51:06;2.58;;;1.33;;
78670;SDS011;68277;52.724;6.516;2024-03-02T04:53:32;2.70;;;1.30;;
78670;SDS011;68277;52.724;6.516;2024-03-02T04:55:58;1.38;;;1.27;;
78670;SDS011;68277;52.724;6.516;2024-03-02T04:58:43;1.13;;;0.90;;
78670;SDS011;68277;52.724;6.516;2024-03-02T05:01:09;1.33;;;1.00;;
78670;SDS011;68277;52.724;6.516;2024-03-02T05:03:35;1.50;;;0.90;;
78670;SDS011;68277;52.724;6.516;2024-03-02T05:06:01;1.85;;;1.38;;
78670;SDS011;68277;52.724;6.516;2024-03-02T05:08:27;6.65;;;1.30;;
78670;SDS011;68277;52.724;6.516;2024-03-02T05:10:52;3.00;;;1.45;;
78670;SDS011;68277;52.724;6.516;2024-03-02T05:13:18;1.10;;;0.73;;
78670;SDS011;68277;52.724;6.516;2024-03-02T05:15:43;1.95;;;0.93;;
78670;SDS011;68277;52.724;6.516;2024-03-02T05:18:09;2.17;;;1.08;;
78670;SDS011;68277;52.724;6.516;2024-03-02T05:20:34;2.03;;;1.33;;
78670;SDS011;68277;52.724;6.516;2024-03-02T05:23:00;2.15;;;1.00;;
78670;SDS011;68277;52.724;6.516;2024-03-02T05:25:25;1.85;;;0.88;;
78670;SDS011;68277;52.724;6.516;2024-03-02T05:27:51;2.83;;;1.08;;
78670;SDS011;68277;52.724;6.516;2024-03-02T05:30:17;1.38;;;1.27;;
78670;SDS011;68277;52.724;6.516;2024-03-02T05:32:42;1.23;;;0.88;;
78670;SDS011;68277;52.724;6.516;2024-03-02T05:35:08;1.55;;;0.82;;
78670;SDS011;68277;52.724;6.516;2024-03-02T05:37:34;2.05;;;1.10;;
78670;SDS011;68277;52.724;6.516;2024-03-02T05:40:00;1.40;;;0.68;;
78670;SDS011;68277;52.724;6.516;2024-03-02T05:42:25;2.42;;;1.42;;
78670;SDS011;68277;52.724;6.516;2024-03-02T05:44:52;1.60;;;1.33;;
78670;SDS011;68277;52.724;6.516;2024-03-02T05:47:18;2.25;;;1.08;;
78670;SDS011;68277;52.724;6.516;2024-03-02T05:49:43;0.80;;;0.80;;
78670;SDS011;68277;52.724;6.516;2024-03-02T05:52:09;1.38;;;0.82;;
78670;SDS011;68277;52.724;6.516;2024-03-02T05:54:36;0.93;;;0.77;;
78670;SDS011;68277;52.724;6.516;2024-03-02T05:57:02;0.85;;;0.60;;
78670;SDS011;68277;52.724;6.516;2024-03-02T05:59:42;1.40;;;0.60;;
78670;SDS011;68277;52.724;6.516;2024-03-02T06:02:08;0.80;;;0.70;;
78670;SDS011;68277;52.724;6.516;2024-03-02T06:04:34;0.60;;;0.60;;
78670;SDS011;68277;52.724;6.516;2024-03-02T06:06:59;0.45;;;0.45;;
78670;SDS011;68277;52.724;6.516;2024-03-02T06:09:25;0.32;;;0.32;;
78670;SDS011;68277;52.724;6.516;2024-03-02T06:11:51;0.63;;;0.60;;
78670;SDS011;68277;52.724;6.516;2024-03-02T06:14:17;0.60;;;0.50;;
78670;SDS011;68277;52.724;6.516;2024-03-02T06:16:44;0.55;;;0.35;;
78670;SDS011;68277;52.724;6.516;2024-03-02T06:19:10;0.77;;;0.32;;
78670;SDS011;68277;52.724;6.516;2024-03-02T06:21:35;0.20;;;0.20;;
78670;SDS011;68277;52.724;6.516;2024-03-02T06:24:08;0.15;;;0.15;;
78670;SDS011;68277;52.724;6.516;2024-03-02T06:26:34;0.25;;;0.25;;
78670;SDS011;68277;52.724;6.516;2024-03-02T06:28:59;0.20;;;0.20;;
78670;SDS011;68277;52.724;6.516;2024-03-02T06:31:27;0.20;;;0.20;;
78670;SDS011;68277;52.724;6.516;2024-03-02T06:33:53;0.13;;;0.13;;
78670;SDS011;68277;52.724;6.516;2024-03-02T06:36:18;0.65;;;0.65;;
78670;SDS011;68277;52.724;6.516;2024-03-02T06:38:44;0.25;;;0.25;;
78670;SDS011;68277;52.724;6.516;2024-03-02T06:41:09;0.80;;;0.50;;
78670;SDS011;68277;52.724;6.516;2024-03-02T06:43:36;0.60;;;0.20;;
78670;SDS011;68277;52.724;6.516;2024-03-02T06:46:01;0.30;;;0.30;;
78670;SDS011;68277;52.724;6.516;2024-03-02T06:48:28;0.63;;;0.40;;
78670;SDS011;68277;52.724;6.516;2024-03-02T06:50:55;0.38;;;0.38;;
78670;SDS011;68277;52.724;6.516;2024-03-02T06:53:21;0.40;;;0.40;;
78670;SDS011;68277;52.724;6.516;2024-03-02T06:55:47;1.20;;;0.50;;
78670;SDS011;68277;52.724;6.516;2024-03-02T06:58:13;0.75;;;0.30;;
78670;SDS011;68277;52.724;6.516;2024-03-02T07:00:40;0.43;;;0.43;;
78670;SDS011;68277;52.724;6.516;2024-03-02T07:03:06;0.68;;;0.45;;
78670;SDS011;68277;52.724;6.516;2024-03-02T07:05:31;0.65;;;0.47;;
78670;SDS011;68277;52.724;6.516;2024-03-02T07:07:57;0.20;;;0.20;;
78670;SDS011;68277;52.724;6.516;2024-03-02T07:10:22;0.32;;;0.32;;
78670;SDS011;68277;52.724;6.516;2024-03-02T07:12:48;0.30;;;0.30;;
78670;SDS011;68277;52.724;6.516;2024-03-02T07:15:14;0.20;;;0.20;;
78670;SDS011;68277;52.724;6.516;2024-03-02T07:17:58;0.30;;;0.30;;
78670;SDS011;68277;52.724;6.516;2024-03-02T07:20:24;1.15;;;0.22;;
78670;SDS011;68277;52.724;6.516;2024-03-02T07:22:50;0.40;;;0.40;;
78670;SDS011;68277;52.724;6.516;2024-03-02T07:25:15;0.20;;;0.20;;
78670;SDS011;68277;52.724;6.516;2024-03-02T07:27:41;0.10;;;0.10;;
78670;SDS011;68277;52.724;6.516;2024-03-02T07:30:07;0.32;;;0.32;;
78670;SDS011;68277;52.724;6.516;2024-03-02T07:32:33;0.45;;;0.40;;
78670;SDS011;68277;52.724;6.516;2024-03-02T07:34:58;0.13;;;0.10;;
78670;SDS011;68277;52.724;6.516;2024-03-02T07:37:27;0.50;;;0.40;;
78670;SDS011;68277;52.724;6.516;2024-03-02T07:39:52;0.98;;;0.68;;
78670;SDS011;68277;52.724;6.516;2024-03-02T07:42:18;0.35;;;0.35;;
78670;SDS011;68277;52.724;6.516;2024-03-02T07:44:44;0.20;;;0.20;;
78670;SDS011;68277;52.724;6.516;2024-03-02T07:49:36;0.30;;;0.30;;
78670;SDS011;68277;52.724;6.516;2024-03-02T07:52:01;0.80;;;0.40;;
78670;SDS011;68277;52.724;6.516;2024-03-02T07:54:27;0.63;;;0.63;;
78670;SDS011;68277;52.724;6.516;2024-03-02T07:56:53;0.35;;;0.35;;
78670;SDS011;68277;52.724;6.516;2024-03-02T07:59:18;1.77;;;0.85;;
78670;SDS011;68277;52.724;6.516;2024-03-02T08:01:44;1.67;;;0.65;;
78670;SDS011;68277;52.724;6.516;2024-03-02T08:04:09;0.50;;;0.50;;
78670;SDS011;68277;52.724;6.516;2024-03-02T08:06:35;0.65;;;0.50;;
78670;SDS011;68277;52.724;6.516;2024-03-02T08:09:02;0.95;;;0.55;;
78670;SDS011;68277;52.724;6.516;2024-03-02T08:11:34;0.22;;;0.20;;
78670;SDS011;68277;52.724;6.516;2024-03-02T08:14:00;3.40;;;0.47;;
78670;SDS011;68277;52.724;6.516;2024-03-02T08:16:25;0.40;;;0.20;;
78670;SDS011;68277;52.724;6.516;2024-03-02T08:18:51;0.57;;;0.30;;
78670;SDS011;68277;52.724;6.516;2024-03-02T08:21:17;1.58;;;0.35;;
78670;SDS011;68277;52.724;6.516;2024-03-02T08:23:43;0.70;;;0.55;;
78670;SDS011;68277;52.724;6.516;2024-03-02T08:26:09;0.50;;;0.50;;
78670;SDS011;68277;52.724;6.516;2024-03-02T08:28:35;1.27;;;0.60;;
78670;SDS011;68277;52.724;6.516;2024-03-02T08:31:02;0.60;;;0.40;;
78670;SDS011;68277;52.724;6.516;2024-03-02T08:33:29;1.48;;;0.52;;
78670;SDS011;68277;52.724;6.516;2024-03-02T08:35:54;0.55;;;0.50;;
78670;SDS011;68277;52.724;6.516;2024-03-02T08:38:20;0.40;;;0.40;;
78670;SDS011;68277;52.724;6.516;2024-03-02T08:40:46;0.70;;;0.50;;
78670;SDS011;68277;52.724;6.516;2024-03-02T08:43:12;2.08;;;0.65;;
78670;SDS011;68277;52.724;6.516;2024-03-02T08:45:38;0.88;;;0.80;;
78670;SDS011;68277;52.724;6.516;2024-03-02T08:50:31;1.10;;;0.43;;
78670;SDS011;68277;52.724;6.516;2024-03-02T08:52:58;0.95;;;0.50;;
78670;SDS011;68277;52.724;6.516;2024-03-02T08:55:23;0.57;;;0.40;;
78670;SDS011;68277;52.724;6.516;2024-03-02T08:57:49;1.30;;;0.60;;
78670;SDS011;68277;52.724;6.516;2024-03-02T09:00:15;1.33;;;0.47;;
78670;SDS011;68277;52.724;6.516;2024-03-02T09:05:08;0.57;;;0.50;;
78670;SDS011;68277;52.724;6.516;2024-03-02T09:07:34;0.82;;;0.50;;
78670;SDS011;68277;52.724;6.516;2024-03-02T09:09:59;1.15;;;0.52;;
78670;SDS011;68277;52.724;6.516;2024-03-02T09:12:28;0.85;;;0.60;;
78670;SDS011;68277;52.724;6.516;2024-03-02T09:14:53;0.43;;;0.43;;
78670;SDS011;68277;52.724;6.516;2024-03-02T09:17:19;1.35;;;0.45;;
78670;SDS011;68277;52.724;6.516;2024-03-02T09:19:44;1.05;;;0.77;;
78670;SDS011;68277;52.724;6.516;2024-03-02T09:22:10;0.52;;;0.50;;
78670;SDS011;68277;52.724;6.516;2024-03-02T09:24:36;1.17;;;0.50;;
78670;SDS011;68277;52.724;6.516;2024-03-02T09:27:01;0.47;;;0.47;;
78670;SDS011;68277;52.724;6.516;2024-03-02T09:29:27;1.52;;;0.38;;
78670;SDS011;68277;52.724;6.516;2024-03-02T09:31:52;0.60;;;0.40;;
78670;SDS011;68277;52.724;6.516;2024-03-02T09:34:18;0.57;;;0.40;;
78670;SDS011;68277;52.724;6.516;2024-03-02T09:36:45;1.90;;;0.60;;
78670;SDS011;68277;52.724;6.516;2024-03-02T09:39:11;1.65;;;0.77;;
78670;SDS011;68277;52.724;6.516;2024-03-02T09:41:37;0.40;;;0.40;;
78670;SDS011;68277;52.724;6.516;2024-03-02T09:46:29;0.38;;;0.38;;
78670;SDS011;68277;52.724;6.516;2024-03-02T09:48:55;1.05;;;0.70;;
78670;SDS011;68277;52.724;6.516;2024-03-02T09:51:21;0.70;;;0.60;;
78670;SDS011;68277;52.724;6.516;2024-03-02T09:53:47;2.40;;;0.60;;
78670;SDS011;68277;52.724;6.516;2024-03-02T09:56:14;1.13;;;0.50;;
78670;SDS011;68277;52.724;6.516;2024-03-02T09:58:48;2.35;;;0.73;;
78670;SDS011;68277;52.724;6.516;2024-03-02T10:01:14;1.15;;;0.60;;
78670;SDS011;68277;52.724;6.516;2024-03-02T10:03:40;1.15;;;0.63;;
78670;SDS011;68277;52.724;6.516;2024-03-02T10:06:18;0.40;;;0.40;;
78670;SDS011;68277;52.724;6.516;2024-03-02T10:08:44;1.77;;;0.68;;
78670;SDS011;68277;52.724;6.516;2024-03-02T10:11:09;3.22;;;0.60;;
78670;SDS011;68277;52.724;6.516;2024-03-02T10:13:36;0.57;;;0.50;;
78670;SDS011;68277;52.724;6.516;2024-03-02T10:16:11;0.40;;;0.40;;
78670;SDS011;68277;52.724;6.516;2024-03-02T10:18:40;2.22;;;0.77;;
78670;SDS011;68277;52.724;6.516;2024-03-02T10:21:13;2.47;;;0.50;;
78670;SDS011;68277;52.724;6.516;2024-03-02T10:23:39;0.68;;;0.60;;
78670;SDS011;68277;52.724;6.516;2024-03-02T10:26:17;5.20;;;1.00;;
78670;SDS011;68277;52.724;6.516;2024-03-02T10:28:46;0.63;;;0.40;;
78670;SDS011;68277;52.724;6.516;2024-03-02T10:31:12;0.88;;;0.63;;
78670;SDS011;68277;52.724;6.516;2024-03-02T10:33:38;0.70;;;0.57;;
78670;SDS011;68277;52.724;6.516;2024-03-02T10:36:05;2.25;;;0.90;;
78670;SDS011;68277;52.724;6.516;2024-03-02T10:38:30;1.48;;;0.50;;
78670;SDS011;68277;52.724;6.516;2024-03-02T10:40:57;1.38;;;0.47;;
78670;SDS011;68277;52.724;6.516;2024-03-02T10:43:25;0.60;;;0.40;;
78670;SDS011;68277;52.724;6.516;2024-03-02T10:45:51;1.27;;;0.60;;
78670;SDS011;68277;52.724;6.516;2024-03-02T10:48:18;0.82;;;0.55;;
78670;SDS011;68277;52.724;6.516;2024-03-02T10:50:44;1.02;;;0.57;;
78670;SDS011;68277;52.724;6.516;2024-03-02T10:53:10;0.40;;;0.32;;
78670;SDS011;68277;52.724;6.516;2024-03-02T10:55:35;0.47;;;0.47;;
78670;SDS011;68277;52.724;6.516;2024-03-02T10:58:01;0.52;;;0.40;;
78670;SDS011;68277;52.724;6.516;2024-03-02T11:00:33;1.88;;;0.55;;
78670;SDS011;68277;52.724;6.516;2024-03-02T11:03:06;1.50;;;0.88;;
78670;SDS011;68277;52.724;6.516;2024-03-02T11:05:36;0.43;;;0.43;;
78670;SDS011;68277;52.724;6.516;2024-03-02T11:08:07;1.73;;;0.77;;
78670;SDS011;68277;52.724;6.516;2024-03-02T11:10:38;2.88;;;0.55;;
78670;SDS011;68277;52.724;6.516;2024-03-02T11:13:16;1.70;;;0.75;;
78670;SDS011;68277;52.724;6.516;2024-03-02T11:15:53;0.70;;;0.45;;
78670;SDS011;68277;52.724;6.516;2024-03-02T11:18:24;0.90;;;0.75;;
78670;SDS011;68277;52.724;6.516;2024-03-02T11:20:51;0.65;;;0.60;;
78670;SDS011;68277;52.724;6.516;2024-03-02T11:23:17;1.55;;;0.50;;
78670;SDS011;68277;52.724;6.516;2024-03-02T11:25:42;1.08;;;0.80;;
78670;SDS011;68277;52.724;6.516;2024-03-02T11:28:08;1.33;;;0.60;;
78670;SDS011;68277;52.724;6.516;2024-03-02T11:33:07;2.38;;;0.70;;
78670;SDS011;68277;52.724;6.516;2024-03-02T11:35:33;1.25;;;0.60;;
78670;SDS011;68277;52.724;6.516;2024-03-02T11:38:05;2.40;;;0.82;;
78670;SDS011;68277;52.724;6.516;2024-03-02T11:40:32;2.50;;;0.50;;
78670;SDS011;68277;52.724;6.516;2024-03-02T11:42:59;1.85;;;0.57;;
78670;SDS011;68277;52.724;6.516;2024-03-02T11:45:25;1.10;;;0.68;;
78670;SDS011;68277;52.724;6.516;2024-03-02T11:50:30;2.42;;;0.90;;
78670;SDS011;68277;52.724;6.516;2024-03-02T11:53:03;0.80;;;0.50;;
78670;SDS011;68277;52.724;6.516;2024-03-02T11:55:31;1.02;;;0.70;;
78670;SDS011;68277;52.724;6.516;2024-03-02T11:58:01;0.82;;;0.70;;
78670;SDS011;68277;52.724;6.516;2024-03-02T12:00:29;0.57;;;0.50;;
78670;SDS011;68277;52.724;6.516;2024-03-02T12:03:04;0.95;;;0.80;;
78670;SDS011;68277;52.724;6.516;2024-03-02T12:05:34;2.33;;;1.27;;
78670;SDS011;68277;52.724;6.516;2024-03-02T12:08:01;1.48;;;0.95;;
78670;SDS011;68277;52.724;6.516;2024-03-02T12:10:28;0.90;;;0.70;;
78670;SDS011;68277;52.724;6.516;2024-03-02T12:12:58;0.95;;;0.80;;
78670;SDS011;68277;52.724;6.516;2024-03-02T12:15:26;1.17;;;0.63;;
78670;SDS011;68277;52.724;6.516;2024-03-02T12:20:24;1.33;;;1.00;;
78670;SDS011;68277;52.724;6.516;2024-03-02T12:23:03;0.80;;;0.80;;
78670;SDS011;68277;52.724;6.516;2024-03-02T12:25:30;3.08;;;0.82;;
78670;SDS011;68277;52.724;6.516;2024-03-02T12:27:59;2.58;;;0.90;;
78670;SDS011;68277;52.724;6.516;2024-03-02T12:30:26;0.85;;;0.70;;
78670;SDS011;68277;52.724;6.516;2024-03-02T12:32:57;1.92;;;0.93;;
78670;SDS011;68277;52.724;6.516;2024-03-02T12:35:24;1.58;;;1.00;;
78670;SDS011;68277;52.724;6.516;2024-03-02T12:37:51;2.80;;;0.70;;
78670;SDS011;68277;52.724;6.516;2024-03-02T12:40:18;0.55;;;0.55;;
78670;SDS011;68277;52.724;6.516;2024-03-02T12:42:45;1.85;;;0.95;;
78670;SDS011;68277;52.724;6.516;2024-03-02T12:45:11;1.58;;;0.60;;
78670;SDS011;68277;52.724;6.516;2024-03-02T12:47:39;2.08;;;1.02;;
78670;SDS011;68277;52.724;6.516;2024-03-02T12:50:06;1.52;;;1.17;;
78670;SDS011;68277;52.724;6.516;2024-03-02T12:52:33;3.80;;;1.10;;
78670;SDS011;68277;52.724;6.516;2024-03-02T12:54:59;1.95;;;1.30;;
78670;SDS011;68277;52.724;6.516;2024-03-02T12:57:26;1.70;;;1.00;;
78670;SDS011;68277;52.724;6.516;2024-03-02T12:59:56;2.08;;;1.02;;
78670;SDS011;68277;52.724;6.516;2024-03-02T13:02:34;2.80;;;0.90;;
78670;SDS011;68277;52.724;6.516;2024-03-02T13:05:07;2.50;;;0.95;;
78670;SDS011;68277;52.724;6.516;2024-03-02T13:07:36;2.95;;;0.90;;
78670;SDS011;68277;52.724;6.516;2024-03-02T13:10:02;2.72;;;1.40;;
78670;SDS011;68277;52.724;6.516;2024-03-02T13:12:29;2.13;;;0.82;;
78670;SDS011;68277;52.724;6.516;2024-03-02T13:14:55;1.25;;;0.80;;
78670;SDS011;68277;52.724;6.516;2024-03-02T13:17:24;1.55;;;1.17;;
78670;SDS011;68277;52.724;6.516;2024-03-02T13:19:56;1.85;;;1.33;;
78670;SDS011;68277;52.724;6.516;2024-03-02T13:22:23;3.70;;;1.15;;
78670;SDS011;68277;52.724;6.516;2024-03-02T13:24:52;2.08;;;1.38;;
78670;SDS011;68277;52.724;6.516;2024-03-02T13:27:24;1.20;;;1.10;;
78670;SDS011;68277;52.724;6.516;2024-03-02T13:29:50;2.80;;;1.45;;
78670;SDS011;68277;52.724;6.516;2024-03-02T13:32:16;1.75;;;1.40;;
78670;SDS011;68277;52.724;6.516;2024-03-02T13:34:42;2.00;;;1.02;;
78670;SDS011;68277;52.724;6.516;2024-03-02T13:37:08;1.48;;;1.02;;
78670;SDS011;68277;52.724;6.516;2024-03-02T13:39:34;2.22;;;1.50;;
78670;SDS011;68277;52.724;6.516;2024-03-02T13:42:06;2.22;;;1.35;;
78670;SDS011;68277;52.724;6.516;2024-03-02T13:44:33;2.83;;;1.80;;
78670;SDS011;68277;52.724;6.516;2024-03-02T13:47:02;1.50;;;1.20;;
78670;SDS011;68277;52.724;6.516;2024-03-02T13:49:28;1.27;;;1.15;;
78670;SDS011;68277;52.724;6.516;2024-03-02T13:52:04;2.55;;;1.00;;
78670;SDS011;68277;52.724;6.516;2024-03-02T13:54:41;3.33;;;1.33;;
78670;SDS011;68277;52.724;6.516;2024-03-02T13:57:08;1.40;;;1.10;;
78670;SDS011;68277;52.724;6.516;2024-03-02T13:59:35;1.67;;;1.33;;
78670;SDS011;68277;52.724;6.516;2024-03-02T14:02:01;2.40;;;1.38;;
78670;SDS011;68277;52.724;6.516;2024-03-02T14:04:33;2.22;;;1.52;;
78670;SDS011;68277;52.724;6.516;2024-03-02T14:06:59;1.95;;;1.45;;
78670;SDS011;68277;52.724;6.516;2024-03-02T14:09:25;2.10;;;1.38;;
78670;SDS011;68277;52.724;6.516;2024-03-02T14:11:55;2.17;;;1.40;;
78670;SDS011;68277;52.724;6.516;2024-03-02T14:14:21;2.90;;;1.50;;
78670;SDS011;68277;52.724;6.516;2024-03-02T14:16:47;1.85;;;1.25;;
78670;SDS011;68277;52.724;6.516;2024-03-02T14:19:12;2.88;;;1.10;;
78670;SDS011;68277;52.724;6.516;2024-03-02T14:21:38;2.58;;;1.13;;
78670;SDS011;68277;52.724;6.516;2024-03-02T14:24:05;2.58;;;1.40;;
78670;SDS011;68277;52.724;6.516;2024-03-02T14:26:32;1.75;;;1.15;;
78670;SDS011;68277;52.724;6.516;2024-03-02T14:28:58;2.47;;;1.30;;
78670;SDS011;68277;52.724;6.516;2024-03-02T14:31:27;2.75;;;0.80;;
78670;SDS011;68277;52.724;6.516;2024-03-02T14:33:53;1.38;;;1.00;;
78670;SDS011;68277;52.724;6.516;2024-03-02T14:36:19;4.30;;;1.17;;
78670;SDS011;68277;52.724;6.516;2024-03-02T14:38:45;2.78;;;1.20;;
78670;SDS011;68277;52.724;6.516;2024-03-02T14:41:11;1.27;;;0.88;;
78670;SDS011;68277;52.724;6.516;2024-03-02T14:43:36;1.10;;;0.95;;
78670;SDS011;68277;52.724;6.516;2024-03-02T14:46:03;3.65;;;1.00;;
78670;SDS011;68277;52.724;6.516;2024-03-02T14:48:29;1.40;;;0.90;;
78670;SDS011;68277;52.724;6.516;2024-03-02T14:50:55;1.35;;;0.88;;
78670;SDS011;68277;52.724;6.516;2024-03-02T14:53:20;1.42;;;0.70;;
78670;SDS011;68277;52.724;6.516;2024-03-02T14:55:46;1.52;;;0.90;;
78670;SDS011;68277;52.724;6.516;2024-03-02T14:58:12;3.80;;;0.57;;
78670;SDS011;68277;52.724;6.516;2024-03-02T15:00:41;4.40;;;1.17;;
78670;SDS011;68277;52.724;6.516;2024-03-02T15:03:06;1.48;;;1.02;;
78670;SDS011;68277;52.724;6.516;2024-03-02T15:05:34;1.15;;;0.70;;
78670;SDS011;68277;52.724;6.516;2024-03-02T15:08:03;2.03;;;1.10;;
78670;SDS011;68277;52.724;6.516;2024-03-02T15:10:30;3.40;;;1.33;;
78670;SDS011;68277;52.724;6.516;2024-03-02T15:12:56;1.88;;;1.13;;
78670;SDS011;68277;52.724;6.516;2024-03-02T15:15:25;1.92;;;1.30;;